Time,TemperatureF,DewpointF,PressureIn,WindDirection,WindDirectionDegrees,WindSpeedMPH,WindSpeedGustMPH,Humidity,HourlyPrecipIn,Conditions,Clouds,dailyrainin,SoftwareType,DateUTC
2013-04-13 00:12:00,37.6,37.1,29.74,NE,45,4.7,-999.0,98,-99.99,,,0.00,Acu-Link.com,2013-04-13 04:12:00,
2013-04-13 00:27:00,37.6,37.1,29.74,NNW,337,6.3,-999.0,98,-99.99,,,0.00,Acu-Link.com,2013-04-13 04:27:00,
2013-04-13 00:42:00,37.8,37.3,29.74,NE,45,7.3,-999.0,98,-99.99,,,0.00,Acu-Link.com,2013-04-13 04:42:00,
2013-04-13 00:58:00,37.6,37.1,29.74,NNE,22,9.9,-999.0,98,-99.99,,,0.00,Acu-Link.com,2013-04-13 04:58:00,
2013-04-13 01:13:00,37.6,37.1,29.74,NNE,22,5.3,-999.0,98,-99.99,,,0.00,Acu-Link.com,2013-04-13 05:13:00,
2013-04-13 01:28:00,37.4,36.9,29.75,North,0,4.2,-999.0,98,-99.99,,,0.00,Acu-Link.com,2013-04-13 05:28:00,
2013-04-13 01:43:00,37.2,36.7,29.75,North,0,4.2,-999.0,98,-99.99,,,0.00,Acu-Link.com,2013-04-13 05:43:00,
2013-04-13 01:58:00,37.0,36.5,29.76,NNW,337,3.2,-999.0,98,-99.99,,,0.00,Acu-Link.com,2013-04-13 05:58:00,
2013-04-13 02:13:00,37.0,36.5,29.77,North,0,4.2,-999.0,98,-99.99,,,0.00,Acu-Link.com,2013-04-13 06:13:00,
2013-04-13 02:28:00,36.7,36.2,29.74,ENE,67,3.2,-999.0,98,-99.99,,,0.00,Acu-Link.com,2013-04-13 06:28:00,
2013-04-13 02:43:00,36.5,36.0,29.70,NE,45,6.3,-999.0,98,-99.99,,,0.00,Acu-Link.com,2013-04-13 06:43:00,
2013-04-13 02:58:00,36.5,36.0,29.71,NNE,22,5.3,-999.0,98,-99.99,,,0.00,Acu-Link.com,2013-04-13 06:58:00,
2013-04-13 03:14:00,36.3,35.8,29.71,NNW,337,3.7,-999.0,98,-99.99,,,0.00,Acu-Link.com,2013-04-13 07:14:00,
2013-04-13 03:29:00,36.5,36.0,29.73,NW,315,4.2,-999.0,98,-99.99,,,0.00,Acu-Link.com,2013-04-13 07:29:00,
2013-04-13 03:44:00,36.5,36.0,29.74,NE,45,3.7,-999.0,98,-99.99,,,0.00,Acu-Link.com,2013-04-13 07:44:00,
2013-04-13 04:14:00,36.5,36.0,29.73,NNE,22,3.2,-999.0,98,-99.99,,,0.00,Acu-Link.com,2013-04-13 08:14:00,
2013-04-13 04:29:00,36.5,36.0,29.74,NE,45,3.7,-999.0,98,-99.99,,,0.00,Acu-Link.com,2013-04-13 08:29:00,
2013-04-13 04:44:00,36.3,35.8,29.74,NE,45,4.7,-999.0,98,-99.99,,,0.00,Acu-Link.com,2013-04-13 08:44:00,
2013-04-13 05:00:00,36.5,36.0,29.75,WNW,292,5.8,-999.0,98,-99.99,,,0.00,Acu-Link.com,2013-04-13 09:00:00,
2013-04-13 05:15:00,36.5,36.0,29.76,NW,315,6.3,-999.0,98,-99.99,,,0.00,Acu-Link.com,2013-04-13 09:15:00,
2013-04-13 05:30:00,36.1,35.6,29.76,NW,315,4.2,-999.0,98,-99.99,,,0.00,Acu-Link.com,2013-04-13 09:30:00,
2013-04-13 06:00:00,35.8,35.3,29.77,North,0,2.7,-999.0,98,-99.99,,,0.00,Acu-Link.com,2013-04-13 10:00:00,
2013-04-13 06:15:00,35.6,35.1,29.78,NE,45,4.7,-999.0,98,-99.99,,,0.00,Acu-Link.com,2013-04-13 10:15:00,
2013-04-13 06:31:00,35.6,35.1,29.79,NNE,22,5.3,-999.0,98,-99.99,,,0.00,Acu-Link.com,2013-04-13 10:31:00,
2013-04-13 06:46:00,35.4,34.9,29.80,NE,45,2.7,-999.0,98,-99.99,,,0.00,Acu-Link.com,2013-04-13 10:46:00,
2013-04-13 07:31:00,35.8,35.3,29.80,NNE,22,6.8,-999.0,98,-99.99,,,0.00,Acu-Link.com,2013-04-13 11:31:00,
2013-04-13 07:46:00,36.0,35.5,29.80,ENE,67,3.2,-999.0,98,-99.99,,,0.00,Acu-Link.com,2013-04-13 11:46:00,
2013-04-13 08:31:00,37.2,35.1,29.80,East,90,6.3,-999.0,92,-99.99,,,0.00,Acu-Link.com,2013-04-13 12:31:00,
2013-04-13 08:47:00,38.5,36.1,29.80,NW,315,4.2,-999.0,91,-99.99,,,0.00,Acu-Link.com,2013-04-13 12:47:00,
2013-04-13 09:02:00,38.7,36.0,29.80,East,90,4.7,-999.0,90,-99.99,,,0.00,Acu-Link.com,2013-04-13 13:02:00,
2013-04-13 09:32:00,42.3,37.8,29.80,NNE,22,2.2,-999.0,84,-99.99,,,0.00,Acu-Link.com,2013-04-13 13:32:00,
2013-04-13 09:47:00,42.1,37.6,29.80,NW,315,2.7,-999.0,84,-99.99,,,0.00,Acu-Link.com,2013-04-13 13:47:00,
2013-04-13 10:02:00,46.9,40.4,29.80,NE,45,0.0,-999.0,78,-99.99,,,0.00,Acu-Link.com,2013-04-13 14:02:00,
2013-04-13 10:32:00,50.0,42.0,29.80,NW,315,1.7,-999.0,74,-99.99,,,0.00,Acu-Link.com,2013-04-13 14:32:00,
2013-04-13 10:48:00,51.6,41.8,29.80,WNW,292,1.7,-999.0,69,-99.99,,,0.00,Acu-Link.com,2013-04-13 14:48:00,
2013-04-13 11:03:00,52.7,42.8,29.80,WNW,292,1.7,-999.0,69,-99.99,,,0.00,Acu-Link.com,2013-04-13 15:03:00,
2013-04-13 11:18:00,54.1,41.8,29.80,WSW,247,2.7,-999.0,63,-99.99,,,0.00,Acu-Link.com,2013-04-13 15:18:00,
2013-04-13 11:33:00,52.9,40.7,29.79,NNE,22,7.3,-999.0,63,-99.99,,,0.00,Acu-Link.com,2013-04-13 15:33:00,
2013-04-13 11:48:00,55.9,40.9,29.79,West,270,4.2,-999.0,57,-99.99,,,0.00,Acu-Link.com,2013-04-13 15:48:00,
2013-04-13 12:03:00,53.6,39.6,29.79,NNW,337,1.7,-999.0,59,-99.99,,,0.00,Acu-Link.com,2013-04-13 16:03:00,
2013-04-13 12:34:00,52.3,39.7,29.78,NW,315,3.7,-999.0,62,-99.99,,,0.00,Acu-Link.com,2013-04-13 16:34:00,
2013-04-13 12:49:00,53.2,40.5,29.80,NNW,337,2.2,-999.0,62,-99.99,,,0.00,Acu-Link.com,2013-04-13 16:49:00,
2013-04-13 13:04:00,50.9,38.4,29.79,NW,315,3.7,-999.0,62,-99.99,,,0.00,Acu-Link.com,2013-04-13 17:04:00,
2013-04-13 13:19:00,53.1,39.6,29.78,NE,45,6.8,-999.0,60,-99.99,,,0.00,Acu-Link.com,2013-04-13 17:19:00,
2013-04-13 13:34:00,52.9,39.0,29.77,NNW,337,3.2,-999.0,59,-99.99,,,0.00,Acu-Link.com,2013-04-13 17:34:00,
2013-04-13 13:49:00,52.3,38.0,29.77,NW,315,3.2,-999.0,58,-99.99,,,0.00,Acu-Link.com,2013-04-13 17:49:00,
2013-04-13 14:05:00,52.2,37.0,29.77,NNW,337,4.7,-999.0,56,-99.99,,,0.00,Acu-Link.com,2013-04-13 18:05:00,
2013-04-13 14:20:00,51.4,37.6,29.78,West,270,4.2,-999.0,59,-99.99,,,0.00,Acu-Link.com,2013-04-13 18:20:00,
2013-04-13 14:35:00,54.1,38.8,29.77,South,180,1.7,-999.0,56,-99.99,,,0.00,Acu-Link.com,2013-04-13 18:35:00,
2013-04-13 14:50:00,57.0,40.5,29.77,WNW,292,2.7,-999.0,54,-99.99,,,0.00,Acu-Link.com,2013-04-13 18:50:00,
2013-04-13 15:05:00,54.7,38.4,29.77,North,0,3.7,-999.0,54,-99.99,,,0.00,Acu-Link.com,2013-04-13 19:05:00,
2013-04-13 15:20:00,55.6,37.8,29.76,West,270,2.7,-999.0,51,-99.99,,,0.00,Acu-Link.com,2013-04-13 19:20:00,
2013-04-13 15:35:00,56.5,39.1,29.76,NW,315,4.2,-999.0,52,-99.99,,,0.00,Acu-Link.com,2013-04-13 19:35:00,
2013-04-13 15:50:00,56.8,37.8,29.76,NW,315,3.2,-999.0,49,-99.99,,,0.00,Acu-Link.com,2013-04-13 19:50:00,
2013-04-13 16:05:00,54.0,36.8,29.76,NW,315,3.2,-999.0,52,-99.99,,,0.00,Acu-Link.com,2013-04-13 20:05:00,
2013-04-13 16:21:00,54.9,37.6,29.77,NW,315,1.1,-999.0,52,-99.99,,,0.00,Acu-Link.com,2013-04-13 20:21:00,
2013-04-13 16:36:00,54.3,37.1,29.77,NW,315,3.7,-999.0,52,-99.99,,,0.00,Acu-Link.com,2013-04-13 20:36:00,
2013-04-13 17:21:00,53.6,37.4,29.79,NNW,337,3.2,-999.0,54,-99.99,,,0.00,Acu-Link.com,2013-04-13 21:21:00,
2013-04-13 17:51:00,52.3,37.1,29.81,NW,315,2.2,-999.0,56,-99.99,,,0.00,Acu-Link.com,2013-04-13 21:51:00,
2013-04-13 18:06:00,52.2,37.4,29.81,NE,45,3.2,-999.0,57,-99.99,,,0.00,Acu-Link.com,2013-04-13 22:06:00,
2013-04-13 18:22:00,51.6,37.7,29.82,NNW,337,1.7,-999.0,59,-99.99,,,0.00,Acu-Link.com,2013-04-13 22:22:00,
2013-04-13 18:37:00,51.3,38.3,29.82,SW,225,0.0,-999.0,61,-99.99,,,0.00,Acu-Link.com,2013-04-13 22:37:00,
2013-04-13 18:52:00,50.7,38.6,29.82,NW,315,0.0,-999.0,63,-99.99,,,0.00,Acu-Link.com,2013-04-13 22:52:00,
2013-04-13 19:07:00,50.4,38.7,29.81,South,180,0.0,-999.0,64,-99.99,,,0.00,Acu-Link.com,2013-04-13 23:07:00,
2013-04-13 19:22:00,49.6,39.1,29.82,SSW,202,0.0,-999.0,67,-99.99,,,0.00,Acu-Link.com,2013-04-13 23:22:00,
2013-04-13 19:37:00,49.1,39.7,29.83,WNW,292,0.0,-999.0,70,-99.99,,,0.00,Acu-Link.com,2013-04-13 23:37:00,
2013-04-13 19:52:00,48.4,40.5,29.84,ESE,112,0.0,-999.0,74,-99.99,,,0.00,Acu-Link.com,2013-04-13 23:52:00,
2013-04-13 20:07:00,47.8,41.3,29.84,East,90,0.0,-999.0,78,-99.99,,,0.00,Acu-Link.com,2013-04-14 00:07:00,
2013-04-13 20:23:00,47.3,40.8,29.85,SW,225,0.0,-999.0,78,-99.99,,,0.00,Acu-Link.com,2013-04-14 00:23:00,
2013-04-13 20:38:00,46.8,41.0,29.85,NNW,337,0.0,-999.0,80,-99.99,,,0.00,Acu-Link.com,2013-04-14 00:38:00,
2013-04-13 20:53:00,46.2,40.7,29.85,NNW,337,0.0,-999.0,81,-99.99,,,0.00,Acu-Link.com,2013-04-14 00:53:00,
2013-04-13 21:08:00,45.9,41.6,29.85,ESE,112,0.0,-999.0,85,-99.99,,,0.00,Acu-Link.com,2013-04-14 01:08:00,
2013-04-13 21:23:00,45.1,40.9,29.86,NNW,337,0.0,-999.0,85,-99.99,,,0.00,Acu-Link.com,2013-04-14 01:23:00,
2013-04-13 21:38:00,44.8,40.6,29.86,NNE,22,0.0,-999.0,85,-99.99,,,0.00,Acu-Link.com,2013-04-14 01:38:00,
2013-04-13 21:53:00,44.4,40.8,29.87,NE,45,0.0,-999.0,87,-99.99,,,0.00,Acu-Link.com,2013-04-14 01:53:00,
2013-04-13 22:08:00,43.9,40.6,29.88,SSW,202,0.0,-999.0,88,-99.99,,,0.00,Acu-Link.com,2013-04-14 02:08:00,
2013-04-13 22:23:00,43.7,41.0,29.88,SSW,202,0.0,-999.0,90,-99.99,,,0.00,Acu-Link.com,2013-04-14 02:23:00,
2013-04-13 22:39:00,43.3,40.9,29.88,SSW,202,0.0,-999.0,91,-99.99,,,0.00,Acu-Link.com,2013-04-14 02:39:00,
2013-04-13 22:54:00,43.0,40.8,29.88,NNE,22,0.0,-999.0,92,-99.99,,,0.00,Acu-Link.com,2013-04-14 02:54:00,
2013-04-13 23:09:00,43.0,40.6,29.88,NW,315,0.0,-999.0,91,-99.99,,,0.00,Acu-Link.com,2013-04-14 03:09:00,
2013-04-13 23:24:00,43.0,40.6,29.88,South,180,0.0,-999.0,91,-99.99,,,0.00,Acu-Link.com,2013-04-14 03:24:00,
2013-04-13 23:39:00,42.8,40.9,29.89,SSW,202,0.0,-999.0,93,-99.99,,,0.00,Acu-Link.com,2013-04-14 03:39:00,
2013-04-13 23:54:00,42.3,41.8,29.88,North,0,0.0,-999.0,98,-99.99,,,0.00,Acu-Link.com,2013-04-14 03:54:00,